createdAt,value
2022-12-15T00:02:15.243Z,12.40
2022-12-15T00:05:00.502Z,12.93
2022-12-15T00:07:45.486Z,13.13
2022-12-15T00:10:30.750Z,13.33
2022-12-15T00:13:16.051Z,12.90
2022-12-15T00:16:01.251Z,12.03
2022-12-15T00:18:46.643Z,13.47
2022-12-15T00:21:31.650Z,12.57
2022-12-15T00:24:16.992Z,12.23
2022-12-15T00:27:02.455Z,12.50
2022-12-15T00:29:49.328Z,12.30
2022-12-15T00:32:34.689Z,12.93
2022-12-15T00:35:19.984Z,13.20
2022-12-15T00:38:05.171Z,13.33
2022-12-15T00:40:31.726Z,12.50
2022-12-15T00:42:58.297Z,12.33
2022-12-15T00:45:44.835Z,11.50
2022-12-15T00:48:11.422Z,12.47
2022-12-15T00:50:53.134Z,11.30
2022-12-15T00:53:42.449Z,14.00
2022-12-15T00:56:28.292Z,13.57
2022-12-15T00:59:13.958Z,11.77
2022-12-15T01:01:59.346Z,13.47
2022-12-15T01:04:45.240Z,12.17
2022-12-15T01:07:30.595Z,11.20
2022-12-15T01:10:15.546Z,13.60
2022-12-15T01:13:00.771Z,12.97
2022-12-15T01:15:46.887Z,11.77
2022-12-15T01:18:32.099Z,13.47
2022-12-15T01:21:00.863Z,12.43
2022-12-15T01:23:27.943Z,12.57
2022-12-15T01:25:55.782Z,11.43
2022-12-15T01:28:23.071Z,13.20
2022-12-15T01:30:50.184Z,13.40
2022-12-15T01:33:17.704Z,13.00
2022-12-15T01:35:44.469Z,12.30
2022-12-15T01:38:11.401Z,13.03
2022-12-15T01:40:46.836Z,12.87
2022-12-15T01:43:25.046Z,12.10
2022-12-15T01:45:53.078Z,13.07
2022-12-15T01:48:25.272Z,12.90
2022-12-15T01:50:56.990Z,12.20
2022-12-15T01:53:24.131Z,12.47
2022-12-15T01:55:50.940Z,11.90
2022-12-15T01:58:18.445Z,11.63
2022-12-15T02:00:45.131Z,12.20
2022-12-15T02:03:12.134Z,13.23
2022-12-15T02:05:40.153Z,12.10
2022-12-15T02:08:07.203Z,12.63
2022-12-15T02:10:49.075Z,13.10
2022-12-15T02:13:28.724Z,14.20
2022-12-15T02:16:19.550Z,12.30
2022-12-15T02:18:52.268Z,11.37
2022-12-15T02:21:54.995Z,11.70
2022-12-15T02:24:58.017Z,12.70
2022-12-15T02:27:48.445Z,11.43
2022-12-15T02:30:17.109Z,12.03
2022-12-15T02:33:14.784Z,11.40
2022-12-15T02:35:58.216Z,12.00
2022-12-15T02:38:32.632Z,12.40
2022-12-15T02:41:01.114Z,13.17
2022-12-15T02:43:29.759Z,11.20
2022-12-15T02:46:05.686Z,11.40
2022-12-15T02:49:27.803Z,12.30
2022-12-15T02:52:12.550Z,11.33
2022-12-15T02:55:12.391Z,11.40
2022-12-15T02:57:50.804Z,11.53
2022-12-15T03:00:17.969Z,12.27
2022-12-15T03:02:50.851Z,11.00
2022-12-15T03:05:18.899Z,11.07
2022-12-15T03:07:45.633Z,10.17
2022-12-15T03:10:16.291Z,10.80
2022-12-15T03:12:42.917Z,11.40
2022-12-15T03:15:10.116Z,11.33
2022-12-15T03:17:38.253Z,11.07
2022-12-15T03:20:06.145Z,10.77
2022-12-15T03:22:32.775Z,11.60
2022-12-15T03:24:59.414Z,12.77
2022-12-15T03:27:26.023Z,10.83
2022-12-15T03:29:52.628Z,11.77
2022-12-15T03:32:19.282Z,10.50
2022-12-15T03:34:46.027Z,11.60
2022-12-15T03:37:12.615Z,11.97
2022-12-15T03:39:39.198Z,12.37
2022-12-15T03:42:05.859Z,11.10
2022-12-15T03:44:32.528Z,11.30
2022-12-15T03:47:03.219Z,10.80
2022-12-15T03:49:30.463Z,12.10
2022-12-15T03:51:57.142Z,11.20
2022-12-15T03:54:23.738Z,11.27
2022-12-15T03:56:50.379Z,11.00
2022-12-15T03:59:17.091Z,11.80
2022-12-15T04:01:47.967Z,11.40
2022-12-15T04:04:14.679Z,11.60
2022-12-15T04:06:41.277Z,11.87
2022-12-15T04:09:07.783Z,11.40
2022-12-15T04:11:34.332Z,11.10
2022-12-15T04:14:00.935Z,11.00
2022-12-15T04:16:27.546Z,10.00
2022-12-15T04:19:14.122Z,12.60
2022-12-15T04:21:40.663Z,10.70
2022-12-15T04:24:26.058Z,11.17
2022-12-15T04:27:11.453Z,10.97
2022-12-15T04:29:56.802Z,12.20
2022-12-15T04:32:42.444Z,10.30
2022-12-15T04:35:28.194Z,11.10
2022-12-15T04:38:13.824Z,10.40
2022-12-15T04:40:59.017Z,10.90
2022-12-15T04:43:44.006Z,10.90
2022-12-15T04:46:29.417Z,11.00
2022-12-15T04:49:14.867Z,11.10
2022-12-15T04:52:00.053Z,10.70
2022-12-15T04:54:45.266Z,10.37
2022-12-15T04:57:30.118Z,11.70
2022-12-15T05:00:15.449Z,10.50
2022-12-15T05:03:00.741Z,10.00
2022-12-15T05:05:46.112Z,10.50
2022-12-15T05:08:31.126Z,10.97
2022-12-15T05:11:18.317Z,10.20
2022-12-15T05:14:03.664Z,10.87
2022-12-15T05:16:48.905Z,10.73
2022-12-15T05:19:34.129Z,11.53
2022-12-15T05:22:19.455Z,9.67
2022-12-15T05:25:04.720Z,11.63
2022-12-15T05:27:49.999Z,11.43
2022-12-15T05:30:35.374Z,10.90
2022-12-15T05:33:05.710Z,10.87
2022-12-15T05:35:32.315Z,9.17
2022-12-15T05:37:58.944Z,11.97
2022-12-15T05:40:25.467Z,9.67
2022-12-15T05:42:52.087Z,10.70
2022-12-15T05:45:18.666Z,11.43
2022-12-15T05:47:51.158Z,10.47
2022-12-15T05:50:17.758Z,10.47
2022-12-15T05:52:49.181Z,11.13
2022-12-15T05:55:16.957Z,10.70
2022-12-15T05:57:43.601Z,11.40
2022-12-15T06:00:10.592Z,11.73
2022-12-15T06:02:39.853Z,11.13
2022-12-15T06:05:07.185Z,10.97
2022-12-15T06:07:33.990Z,11.97
2022-12-15T06:10:00.598Z,11.27
2022-12-15T06:12:28.346Z,10.60
2022-12-15T06:14:54.966Z,10.37
2022-12-15T06:17:21.656Z,11.97
2022-12-15T06:19:48.189Z,11.40
2022-12-15T06:22:14.792Z,12.00
2022-12-15T06:24:41.442Z,12.20
2022-12-15T06:27:09.055Z,11.93
2022-12-15T06:29:35.650Z,11.80
2022-12-15T06:32:02.316Z,12.20
2022-12-15T06:34:28.901Z,11.90
2022-12-15T06:36:55.511Z,11.60
2022-12-15T06:39:22.216Z,11.90
2022-12-15T06:41:48.773Z,10.40
2022-12-15T06:44:15.955Z,11.93
2022-12-15T06:46:43.164Z,10.70
2022-12-15T06:49:09.839Z,12.27
2022-12-15T06:51:36.647Z,11.20
2022-12-15T06:54:03.266Z,10.90
2022-12-15T06:56:36.079Z,11.43
2022-12-15T06:59:04.606Z,11.10
2022-12-15T07:01:31.783Z,10.77
2022-12-15T07:04:02.744Z,12.10
2022-12-15T07:06:34.238Z,12.00
2022-12-15T07:09:00.952Z,11.37
2022-12-15T07:11:27.512Z,11.70
2022-12-15T07:13:54.700Z,11.90
2022-12-15T07:16:23.009Z,10.57
2022-12-15T07:18:49.860Z,11.77
2022-12-15T07:21:16.577Z,11.57
2022-12-15T07:23:54.657Z,12.07
2022-12-15T07:26:22.503Z,11.37
2022-12-15T07:28:49.106Z,11.67
2022-12-15T07:31:15.982Z,10.90
2022-12-15T07:33:42.610Z,11.20
2022-12-15T07:36:09.655Z,12.10
2022-12-15T07:38:36.597Z,12.73
2022-12-15T07:41:05.000Z,11.80
2022-12-15T07:43:32.838Z,11.63
2022-12-15T07:46:01.019Z,12.90
2022-12-15T07:48:27.682Z,11.83
2022-12-15T07:51:02.754Z,13.03
2022-12-15T07:53:34.226Z,11.67
2022-12-15T07:56:10.160Z,13.13
2022-12-15T07:58:38.036Z,12.70
2022-12-15T08:01:07.138Z,14.17
2022-12-15T08:03:35.460Z,13.00
2022-12-15T08:06:12.886Z,12.70
2022-12-15T08:08:40.376Z,12.93
2022-12-15T08:11:11.696Z,13.13
2022-12-15T08:16:26.023Z,12.50
2022-12-15T08:18:53.047Z,14.50
2022-12-15T08:21:19.698Z,12.97
2022-12-15T08:23:46.334Z,12.60
2022-12-15T08:26:16.492Z,13.20
2022-12-15T08:28:43.970Z,13.53
2022-12-15T08:31:13.497Z,12.63
2022-12-15T08:33:40.453Z,13.50
2022-12-15T08:36:09.634Z,13.97
2022-12-15T08:38:38.628Z,12.27
2022-12-15T08:41:15.916Z,13.37
2022-12-15T08:43:48.964Z,13.67
2022-12-15T08:46:26.780Z,13.80
2022-12-15T08:48:53.865Z,14.37
2022-12-15T08:51:21.500Z,14.93
2022-12-15T08:54:05.953Z,15.20
2022-12-15T08:56:41.415Z,14.20
2022-12-15T08:59:09.758Z,13.87
2022-12-15T09:01:40.389Z,13.93
2022-12-15T09:04:07.528Z,14.27
2022-12-15T09:06:35.447Z,14.50
2022-12-15T09:09:05.188Z,15.00
2022-12-15T09:11:32.236Z,13.57
2022-12-15T09:13:59.125Z,14.30
2022-12-15T09:16:26.320Z,14.67
2022-12-15T09:18:55.395Z,14.50
2022-12-15T09:21:25.111Z,15.80
2022-12-15T09:23:53.385Z,13.90
2022-12-15T09:26:23.199Z,14.17
2022-12-15T09:28:51.246Z,14.17
2022-12-15T09:31:23.456Z,12.07
2022-12-15T09:37:08.005Z,14.23
2022-12-15T09:39:41.625Z,14.80
2022-12-15T09:42:27.991Z,14.93
2022-12-15T09:45:09.636Z,14.33
2022-12-15T09:48:06.122Z,14.00
2022-12-15T09:50:35.253Z,14.43
2022-12-15T09:53:02.451Z,14.97
2022-12-15T09:55:30.962Z,15.80
2022-12-15T09:58:06.047Z,14.73
2022-12-15T10:00:44.454Z,14.87
2022-12-15T10:03:30.581Z,15.43
2022-12-15T10:06:20.050Z,14.47
2022-12-15T10:08:56.762Z,15.20
2022-12-15T10:11:35.823Z,15.03
2022-12-15T10:14:13.858Z,15.93
2022-12-15T10:17:01.225Z,15.10
2022-12-15T10:19:36.774Z,14.87
2022-12-15T10:22:03.466Z,14.10
2022-12-15T10:25:07.922Z,14.87
2022-12-15T10:27:36.663Z,14.57
2022-12-15T10:30:09.181Z,13.93
2022-12-15T10:32:52.561Z,14.50
2022-12-15T10:35:27.566Z,14.77
2022-12-15T10:38:37.816Z,15.37
2022-12-15T10:41:06.729Z,14.70
2022-12-15T10:43:44.321Z,14.00
2022-12-15T10:46:21.877Z,16.33
2022-12-15T10:49:11.909Z,16.10
2022-12-15T10:51:57.170Z,15.43
2022-12-15T10:54:26.996Z,14.63
2022-12-15T10:56:56.312Z,14.80
2022-12-15T10:59:22.807Z,16.03
2022-12-15T11:04:36.283Z,16.77
2022-12-15T11:07:04.105Z,15.23
2022-12-15T11:09:36.281Z,14.60
2022-12-15T11:12:35.821Z,16.27
2022-12-15T11:15:02.738Z,15.17
2022-12-15T11:17:39.620Z,15.80
2022-12-15T11:20:17.090Z,15.10
2022-12-15T11:22:47.244Z,15.47
2022-12-15T11:25:35.675Z,15.70
2022-12-15T11:28:06.843Z,16.10
2022-12-15T11:30:38.979Z,16.47
2022-12-15T11:33:07.246Z,16.33
2022-12-15T11:35:46.128Z,16.20
2022-12-15T11:38:18.343Z,16.40
2022-12-15T11:40:45.143Z,16.57
2022-12-15T11:43:15.129Z,15.63
2022-12-15T11:46:03.435Z,17.60
2022-12-15T11:48:54.769Z,16.93
2022-12-15T11:51:27.381Z,17.23
2022-12-15T11:54:20.317Z,17.53
2022-12-15T11:57:00.654Z,17.20
2022-12-15T11:59:36.435Z,17.23
2022-12-15T12:02:12.242Z,18.60
2022-12-15T12:05:09.795Z,17.67
2022-12-15T12:07:46.538Z,18.03
2022-12-15T12:10:30.992Z,18.63
2022-12-15T12:13:19.017Z,19.50
2022-12-15T12:16:26.591Z,18.03
2022-12-15T12:19:04.667Z,17.57
2022-12-15T12:21:42.948Z,14.20
2022-12-15T12:24:19.714Z,16.37
2022-12-15T12:26:56.738Z,16.53
2022-12-15T12:29:30.866Z,15.33
2022-12-15T12:32:04.772Z,16.50
2022-12-15T12:35:31.178Z,15.87
2022-12-15T12:41:02.803Z,13.90
2022-12-15T12:43:44.562Z,14.77
2022-12-15T12:46:44.347Z,15.10
2022-12-15T12:49:26.639Z,14.77
2022-12-15T12:51:55.388Z,16.20
2022-12-15T12:54:36.996Z,16.67
2022-12-15T12:57:12.560Z,15.00
2022-12-15T12:59:42.152Z,15.47
2022-12-15T13:02:15.041Z,15.07
2022-12-15T13:04:51.891Z,16.13
2022-12-15T13:07:36.299Z,15.50
2022-12-15T13:10:08.910Z,15.00
2022-12-15T13:12:53.520Z,16.10
2022-12-15T13:15:42.787Z,14.50
2022-12-15T13:18:14.034Z,14.53
2022-12-15T13:20:41.198Z,14.93
2022-12-15T13:23:18.959Z,14.60
2022-12-15T13:25:57.689Z,14.30
2022-12-15T13:28:35.033Z,14.03
2022-12-15T13:31:20.790Z,15.30
2022-12-15T13:33:50.360Z,14.00
2022-12-15T13:36:42.113Z,14.07
2022-12-15T13:39:12.186Z,13.40
2022-12-15T13:41:54.278Z,13.60
2022-12-15T13:44:44.192Z,14.80
2022-12-15T13:47:18.299Z,14.00
2022-12-15T13:50:09.421Z,13.00
2022-12-15T13:55:39.232Z,13.90
2022-12-15T13:58:17.603Z,13.50
2022-12-15T14:00:51.347Z,13.40
2022-12-15T14:03:18.098Z,12.97
2022-12-15T14:05:51.266Z,13.40
2022-12-15T14:08:18.740Z,14.00
2022-12-15T14:10:55.087Z,13.70
2022-12-15T14:13:30.338Z,13.30
2022-12-15T14:16:19.025Z,13.23
2022-12-15T14:19:03.192Z,13.20
2022-12-15T14:21:30.409Z,13.60
2022-12-15T14:24:36.343Z,13.70
2022-12-15T14:26:44.611Z,13.97
2022-12-15T14:29:12.982Z,13.97
2022-12-15T14:31:40.628Z,13.47
2022-12-15T14:34:19.950Z,14.10
2022-12-15T14:36:47.879Z,12.63
2022-12-15T14:39:34.380Z,14.07
2022-12-15T14:42:02.005Z,13.23
2022-12-15T14:44:39.085Z,13.27
2022-12-15T14:47:08.968Z,12.47
2022-12-15T14:49:41.440Z,12.47
2022-12-15T14:52:22.208Z,13.10
2022-12-15T14:54:57.853Z,13.10
2022-12-15T14:57:39.256Z,13.43
2022-12-15T15:00:27.887Z,12.43
2022-12-15T15:03:04.147Z,15.97
2022-12-15T15:03:11.539Z,12.47
2022-12-15T15:03:15.799Z,15.30
2022-12-15T15:03:20.183Z,13.33
2022-12-15T15:05:48.470Z,12.70
2022-12-15T15:08:20.005Z,13.37
2022-12-15T15:10:46.832Z,13.50
2022-12-15T15:13:22.050Z,12.57
2022-12-15T15:15:56.658Z,13.00
2022-12-15T15:18:26.510Z,13.60
2022-12-15T15:21:01.728Z,13.47
2022-12-15T15:23:28.536Z,13.00
2022-12-15T15:26:05.061Z,13.17
2022-12-15T15:28:42.486Z,12.70
2022-12-15T15:31:24.482Z,13.57
2022-12-15T15:33:51.822Z,13.97
2022-12-15T15:36:18.488Z,12.73
2022-12-15T15:38:46.826Z,14.50
2022-12-15T15:41:21.082Z,13.67
2022-12-15T15:43:48.008Z,13.67
2022-12-15T15:46:16.821Z,13.80
2022-12-15T15:48:49.600Z,14.37
2022-12-15T15:51:16.371Z,13.67
2022-12-15T15:53:43.189Z,14.13
2022-12-15T15:56:12.050Z,12.20
2022-12-15T15:58:38.848Z,14.67
2022-12-15T16:01:11.135Z,14.00
2022-12-15T16:03:39.596Z,13.60
2022-12-15T16:06:09.418Z,15.03
2022-12-15T16:08:37.102Z,15.10
2022-12-15T16:11:03.858Z,13.60
2022-12-15T16:13:30.513Z,12.93
2022-12-15T16:15:57.205Z,12.23
2022-12-15T16:18:23.878Z,13.33
2022-12-15T16:20:51.449Z,12.50
2022-12-15T16:23:21.254Z,13.20
2022-12-15T16:25:51.273Z,12.37
2022-12-15T16:28:20.501Z,14.10
2022-12-15T16:30:47.576Z,14.00
2022-12-15T16:33:14.859Z,14.00
2022-12-15T16:35:42.604Z,13.40
2022-12-15T16:38:30.810Z,12.93
2022-12-15T16:40:59.725Z,13.43
2022-12-15T16:43:32.897Z,14.43
2022-12-15T16:46:03.144Z,13.00
2022-12-15T16:48:30.281Z,12.43
2022-12-15T16:50:59.325Z,12.20
2022-12-15T16:53:26.844Z,12.60
2022-12-15T16:56:00.027Z,12.67
2022-12-15T16:58:27.667Z,12.37
2022-12-15T17:00:54.826Z,13.00
2022-12-15T17:03:28.626Z,12.83
2022-12-15T17:06:00.923Z,13.00
2022-12-15T17:08:31.712Z,12.90
2022-12-15T17:10:58.727Z,14.30
2022-12-15T17:13:37.662Z,13.77
2022-12-15T17:16:11.257Z,11.70
2022-12-15T17:18:38.115Z,13.80
2022-12-15T17:21:07.862Z,14.23
2022-12-15T17:23:35.357Z,13.53
2022-12-15T17:26:22.669Z,13.23
2022-12-15T17:28:49.489Z,14.40
2022-12-15T17:31:21.244Z,14.13
2022-12-15T17:33:48.297Z,13.90
2022-12-15T17:36:23.549Z,13.33
2022-12-15T17:38:54.798Z,12.20
2022-12-15T17:41:50.381Z,12.47
2022-12-15T17:44:32.983Z,12.30
2022-12-15T17:47:00.826Z,13.90
2022-12-15T17:49:33.041Z,13.60
2022-12-15T17:52:05.046Z,14.53
2022-12-15T17:54:31.726Z,14.17
2022-12-15T17:56:58.619Z,13.00
2022-12-15T17:59:25.354Z,13.93
2022-12-15T18:01:52.289Z,12.10
2022-12-15T18:04:19.111Z,12.70
2022-12-15T18:06:45.838Z,12.90
2022-12-15T18:09:17.461Z,12.40
2022-12-15T18:11:46.685Z,11.37
2022-12-15T18:14:15.546Z,12.20
2022-12-15T18:16:42.459Z,12.20
2022-12-15T18:19:09.136Z,12.93
2022-12-15T18:21:36.208Z,13.13
2022-12-15T18:24:03.489Z,13.90
2022-12-15T18:26:31.479Z,12.67
2022-12-15T18:28:58.059Z,13.80
2022-12-15T18:31:30.292Z,12.23
2022-12-15T18:34:04.040Z,13.17
2022-12-15T18:36:31.567Z,14.30
2022-12-15T18:38:59.459Z,14.13
2022-12-15T18:41:26.336Z,13.47
2022-12-15T18:43:56.299Z,12.33
2022-12-15T18:46:23.051Z,12.80
2022-12-15T18:48:49.693Z,14.80
2022-12-15T18:51:18.572Z,14.70
2022-12-15T18:53:45.678Z,13.43
2022-12-15T18:56:14.937Z,14.43
2022-12-15T18:58:42.374Z,13.23
2022-12-15T19:01:09.353Z,13.20
2022-12-15T19:03:36.730Z,11.13
2022-12-15T19:06:10.863Z,12.73
2022-12-15T19:08:38.994Z,12.20
2022-12-15T19:11:23.581Z,12.50
2022-12-15T19:13:50.596Z,11.83
2022-12-15T19:16:19.887Z,11.90
2022-12-15T19:19:05.334Z,11.87
2022-12-15T19:21:53.051Z,12.83
2022-12-15T19:24:45.138Z,12.20
2022-12-15T19:27:13.050Z,11.97
2022-12-15T19:29:40.766Z,12.20
2022-12-15T19:32:08.396Z,12.47
2022-12-15T19:34:35.843Z,13.00
2022-12-15T19:37:03.909Z,12.87
2022-12-15T19:39:33.337Z,11.50
2022-12-15T19:42:00.173Z,11.83
2022-12-15T19:44:27.480Z,10.53
2022-12-15T19:46:54.283Z,10.00
2022-12-15T19:49:20.894Z,9.53
2022-12-15T19:51:47.764Z,9.63
2022-12-15T19:54:21.172Z,12.30
2022-12-15T19:56:48.352Z,12.13
2022-12-15T19:59:22.413Z,13.30
2022-12-15T20:01:51.852Z,12.77
2022-12-15T20:04:22.448Z,14.97
2022-12-15T20:06:50.922Z,13.60
2022-12-15T20:09:18.733Z,13.53
2022-12-15T20:11:45.491Z,12.10
2022-12-15T20:14:13.703Z,12.90
2022-12-15T20:16:40.472Z,12.87
2022-12-15T20:19:07.268Z,12.23
2022-12-15T20:21:37.137Z,11.90
2022-12-15T20:24:09.318Z,12.70
2022-12-15T20:26:37.504Z,11.63
2022-12-15T20:29:05.208Z,12.67
2022-12-15T20:31:31.931Z,12.00
2022-12-15T20:33:58.671Z,11.47
2022-12-15T20:36:28.359Z,11.50
2022-12-15T20:38:55.202Z,12.17
2022-12-15T20:41:23.976Z,12.00
2022-12-15T20:43:51.736Z,13.00
2022-12-15T20:46:21.641Z,13.23
2022-12-15T20:48:49.372Z,12.50
2022-12-15T20:51:25.485Z,14.13
2022-12-15T20:53:53.367Z,12.97
2022-12-15T20:56:23.284Z,12.47
2022-12-15T20:58:50.705Z,11.20
2022-12-15T21:01:32.039Z,11.13
2022-12-15T21:04:01.105Z,11.00
2022-12-15T21:06:28.748Z,11.10
2022-12-15T21:08:55.860Z,10.20
2022-12-15T21:11:25.424Z,10.30
2022-12-15T21:13:55.012Z,11.07
2022-12-15T21:16:24.839Z,10.47
2022-12-15T21:21:45.790Z,11.00
2022-12-15T21:24:22.866Z,11.00
2022-12-15T21:26:50.437Z,11.53
2022-12-15T21:29:19.849Z,10.80
2022-12-15T21:31:46.700Z,11.67
2022-12-15T21:34:13.456Z,10.00
2022-12-15T21:36:42.295Z,9.57
2022-12-15T21:39:11.714Z,9.60
2022-12-15T21:41:41.855Z,9.07
2022-12-15T21:44:13.519Z,9.17
2022-12-15T21:46:40.504Z,9.87
2022-12-15T21:49:18.191Z,9.50
2022-12-15T21:51:52.251Z,10.37
2022-12-15T21:54:30.407Z,9.27
2022-12-15T21:56:58.614Z,9.20
2022-12-15T21:59:26.929Z,8.50
2022-12-15T22:01:55.200Z,7.70
2022-12-15T22:04:33.979Z,7.87
2022-12-15T22:07:01.081Z,7.93
2022-12-15T22:09:27.821Z,8.20
2022-12-15T22:11:55.479Z,8.97
2022-12-15T22:14:26.163Z,10.50
2022-12-15T22:16:53.649Z,10.73
2022-12-15T22:19:22.059Z,11.57
2022-12-15T22:21:49.395Z,11.20
2022-12-15T22:24:16.028Z,11.53
2022-12-15T22:26:43.065Z,11.40
2022-12-15T22:29:21.568Z,10.13
2022-12-15T22:31:50.098Z,9.17
2022-12-15T22:34:20.195Z,8.80
2022-12-15T22:36:47.287Z,9.17
2022-12-15T22:39:15.051Z,9.60
2022-12-15T22:41:44.654Z,10.30
2022-12-15T22:44:28.156Z,9.17
2022-12-15T22:46:56.888Z,10.83
2022-12-15T22:49:30.520Z,11.40
2022-12-15T22:51:57.113Z,12.77
2022-12-15T22:54:25.420Z,12.00
2022-12-15T22:56:59.066Z,10.90
2022-12-15T22:59:36.654Z,10.67
2022-12-15T23:02:03.450Z,12.30
2022-12-15T23:04:32.254Z,11.20
2022-12-15T23:07:04.165Z,11.93
2022-12-15T23:09:30.840Z,11.77
2022-12-15T23:11:58.959Z,9.70
2022-12-15T23:14:44.304Z,8.60
2022-12-15T23:17:12.301Z,9.60
2022-12-15T23:19:43.891Z,9.20
2022-12-15T23:22:10.714Z,10.03
2022-12-15T23:24:37.309Z,10.57
2022-12-15T23:27:03.980Z,10.70
2022-12-15T23:29:30.578Z,10.27
2022-12-15T23:31:57.137Z,10.20
2022-12-15T23:34:23.814Z,9.70
2022-12-15T23:36:50.718Z,9.00
2022-12-15T23:39:17.314Z,9.27
2022-12-15T23:41:44.037Z,10.20
2022-12-15T23:44:12.253Z,10.43
2022-12-15T23:46:38.922Z,11.50
2022-12-15T23:49:05.497Z,11.50
2022-12-15T23:51:32.056Z,10.90
2022-12-15T23:53:58.659Z,10.70
2022-12-15T23:56:25.434Z,9.50
2022-12-15T23:58:57.502Z,10.03
